KLM1903 EHAM-LOWW
Flight info
| Callsign | KLM1903 |
|---|---|
| Flight time | 1h 24m |
| Altitude | 37000 |
| Route | NYKER5W ARNEM L620 HMM DCT NOMKA DCT OMELO DCT EVIKU DCT BITSI DCT MIKOV MIKOV8W |
| Aircraft | B738/M-SDGIJ1LRWY/SB1 |
Departure
| Time | 2026-05-06 08:35 |
|---|---|
| Airport | Amsterdam Airport Schiphol (EHAM) |
Arrival
| Time | 2026-05-06 09:59 |
|---|---|
| Airport | Vienna International Airport (LOWW) |
| Time | Latitude | Longitude | Altitude | Speed | Heading |
|---|---|---|---|---|---|
| 2026-05-06 07:59 | 52.30703 | 4.77152 | -4 ft | 0 kts | 3° |
| 2026-05-06 08:23 | 52.30691 | 4.77151 | -4 ft | 2 kts | 2° |
| 2026-05-06 08:24 | 52.30677 | 4.77146 | -4 ft | 2 kts | 26° |
| 2026-05-06 08:24 | 52.30664 | 4.77133 | -4 ft | 2 kts | 44° |
| 2026-05-06 08:24 | 52.30655 | 4.77114 | -4 ft | 2 kts | 64° |
| 2026-05-06 08:24 | 52.30650 | 4.77090 | -4 ft | 2 kts | 84° |
| 2026-05-06 08:25 | 52.30650 | 4.77077 | -4 ft | 1 kts | 95° |
| 2026-05-06 08:25 | 52.30650 | 4.77069 | -4 ft | 0 kts | 94° |
| 2026-05-06 08:26 | 52.30650 | 4.77092 | -4 ft | 6 kts | 94° |
| 2026-05-06 08:27 | 52.30646 | 4.77193 | -4 ft | 11 kts | 92° |
| 2026-05-06 08:27 | 52.30644 | 4.77374 | -4 ft | 20 kts | 88° |
| 2026-05-06 08:27 | 52.30767 | 4.77459 | -4 ft | 23 kts | 4° |
| 2026-05-06 08:27 | 52.30933 | 4.77478 | -4 ft | 24 kts | 3° |
| 2026-05-06 08:28 | 52.31107 | 4.77497 | -4 ft | 25 kts | 4° |
| 2026-05-06 08:28 | 52.31286 | 4.77491 | -4 ft | 24 kts | 336° |
| 2026-05-06 08:28 | 52.31408 | 4.77301 | -4 ft | 24 kts | 310° |
| 2026-05-06 08:28 | 52.31487 | 4.77077 | -4 ft | 23 kts | 266° |
| 2026-05-06 08:29 | 52.31476 | 4.76814 | -4 ft | 23 kts | 267° |
| 2026-05-06 08:29 | 52.31472 | 4.76553 | -4 ft | 23 kts | 269° |
| 2026-05-06 08:29 | 52.31461 | 4.76288 | -4 ft | 24 kts | 265° |
| 2026-05-06 08:29 | 52.31448 | 4.76017 | -3 ft | 24 kts | 266° |
| 2026-05-06 08:30 | 52.31441 | 4.75731 | -3 ft | 25 kts | 265° |
| 2026-05-06 08:30 | 52.31429 | 4.75428 | -2 ft | 27 kts | 267° |
| 2026-05-06 08:30 | 52.31420 | 4.75119 | -2 ft | 27 kts | 269° |
| 2026-05-06 08:30 | 52.31405 | 4.74810 | -2 ft | 26 kts | 266° |
| 2026-05-06 08:31 | 52.31398 | 4.74513 | -2 ft | 26 kts | 268° |
| 2026-05-06 08:31 | 52.31330 | 4.74270 | -3 ft | 24 kts | 185° |
| 2026-05-06 08:31 | 52.31160 | 4.74266 | -3 ft | 24 kts | 182° |
| 2026-05-06 08:31 | 52.30990 | 4.74253 | -3 ft | 25 kts | 183° |
| 2026-05-06 08:32 | 52.30815 | 4.74234 | -3 ft | 25 kts | 185° |
| 2026-05-06 08:32 | 52.30642 | 4.74212 | -3 ft | 24 kts | 184° |
| 2026-05-06 08:32 | 52.30473 | 4.74197 | -3 ft | 24 kts | 183° |
| 2026-05-06 08:32 | 52.30353 | 4.74107 | -3 ft | 12 kts | 231° |
| 2026-05-06 08:33 | 52.30294 | 4.74006 | -3 ft | 12 kts | 221° |
| 2026-05-06 08:33 | 52.30225 | 4.73915 | -4 ft | 13 kts | 217° |
| 2026-05-06 08:33 | 52.30178 | 4.73796 | -4 ft | 12 kts | 269° |
| 2026-05-06 08:33 | 52.30243 | 4.73737 | -4 ft | 11 kts | 1° |
| 2026-05-06 08:34 | 52.30269 | 4.73739 | -4 ft | 0 kts | 2° |
| 2026-05-06 08:34 | 52.30949 | 4.73798 | -3 ft | 111 kts | 2° |
| 2026-05-06 08:34 | 52.31898 | 4.73896 | 31 ft | 156 kts | 6° |
| 2026-05-06 08:35 | 52.32988 | 4.73960 | 652 ft | 155 kts | 5° |
| 2026-05-06 08:35 | 52.34036 | 4.74248 | 1266 ft | 156 kts | 23° |
| 2026-05-06 08:35 | 52.34993 | 4.75095 | 1860 ft | 158 kts | 26° |
| 2026-05-06 08:35 | 52.35980 | 4.75894 | 2367 ft | 166 kts | 26° |
| 2026-05-06 08:36 | 52.37104 | 4.76633 | 2825 ft | 179 kts | 18° |
| 2026-05-06 08:36 | 52.38286 | 4.77426 | 3257 ft | 194 kts | 37° |
| 2026-05-06 08:36 | 52.39254 | 4.79039 | 3801 ft | 205 kts | 50° |
| 2026-05-06 08:36 | 52.40218 | 4.80893 | 4271 ft | 221 kts | 47° |
| 2026-05-06 08:37 | 52.41291 | 4.82804 | 4760 ft | 235 kts | 47° |
| 2026-05-06 08:37 | 52.42247 | 4.85040 | 5267 ft | 249 kts | 65° |
| 2026-05-06 08:37 | 52.42558 | 4.87874 | 5978 ft | 258 kts | 86° |
| 2026-05-06 08:37 | 52.42505 | 4.90815 | 6684 ft | 264 kts | 89° |
| 2026-05-06 08:38 | 52.42429 | 4.93837 | 7407 ft | 269 kts | 90° |
| 2026-05-06 08:38 | 52.42167 | 4.96911 | 8122 ft | 276 kts | 102° |
| 2026-05-06 08:38 | 52.41356 | 4.99737 | 8817 ft | 286 kts | 124° |
| 2026-05-06 08:38 | 52.39866 | 5.01977 | 9541 ft | 293 kts | 142° |
| 2026-05-06 08:39 | 52.38196 | 5.03853 | 10211 ft | 297 kts | 144° |
| 2026-05-06 08:39 | 52.36447 | 5.05815 | 10641 ft | 311 kts | 144° |
| 2026-05-06 08:39 | 52.34642 | 5.07946 | 11049 ft | 325 kts | 140° |
| 2026-05-06 08:39 | 52.33066 | 5.10684 | 11402 ft | 341 kts | 122° |
| 2026-05-06 08:40 | 52.32006 | 5.14176 | 11860 ft | 353 kts | 111° |
| 2026-05-06 08:40 | 52.31143 | 5.17967 | 12502 ft | 361 kts | 108° |
| 2026-05-06 08:40 | 52.30313 | 5.21874 | 13210 ft | 367 kts | 108° |
| 2026-05-06 08:40 | 52.29458 | 5.25846 | 13913 ft | 373 kts | 109° |
| 2026-05-06 08:41 | 52.28566 | 5.29826 | 14685 ft | 376 kts | 109° |
| 2026-05-06 08:41 | 52.27648 | 5.33784 | 15487 ft | 378 kts | 110° |
| 2026-05-06 08:41 | 52.26691 | 5.37824 | 16240 ft | 381 kts | 111° |
| 2026-05-06 08:41 | 52.25727 | 5.41841 | 16963 ft | 384 kts | 111° |
| 2026-05-06 08:42 | 52.24759 | 5.45853 | 17708 ft | 385 kts | 111° |
| 2026-05-06 08:42 | 52.23769 | 5.49944 | 18419 ft | 387 kts | 112° |
| 2026-05-06 08:42 | 52.22785 | 5.54001 | 19062 ft | 391 kts | 112° |
| 2026-05-06 08:42 | 52.21780 | 5.58140 | 19723 ft | 394 kts | 112° |
| 2026-05-06 08:43 | 52.20769 | 5.62306 | 20348 ft | 398 kts | 112° |
| 2026-05-06 08:43 | 52.19759 | 5.66463 | 20960 ft | 401 kts | 112° |
| 2026-05-06 08:43 | 52.18713 | 5.70761 | 21574 ft | 405 kts | 112° |
| 2026-05-06 08:43 | 52.17677 | 5.75012 | 22152 ft | 408 kts | 112° |
| 2026-05-06 08:44 | 52.16629 | 5.79302 | 22728 ft | 411 kts | 112° |
| 2026-05-06 08:44 | 52.15565 | 5.83650 | 23318 ft | 414 kts | 112° |
| 2026-05-06 08:44 | 52.14507 | 5.87965 | 23847 ft | 418 kts | 112° |
| 2026-05-06 08:44 | 52.13425 | 5.92373 | 24424 ft | 420 kts | 112° |
| 2026-05-06 08:45 | 52.12336 | 5.96798 | 24995 ft | 422 kts | 112° |
| 2026-05-06 08:45 | 52.11257 | 6.01179 | 25567 ft | 423 kts | 112° |
| 2026-05-06 08:45 | 52.10228 | 6.05714 | 26100 ft | 423 kts | 108° |
| 2026-05-06 08:45 | 52.09421 | 6.10296 | 26604 ft | 425 kts | 104° |
| 2026-05-06 08:46 | 52.08800 | 6.14941 | 27052 ft | 427 kts | 101° |
| 2026-05-06 08:46 | 52.08268 | 6.19674 | 27451 ft | 430 kts | 100° |
| 2026-05-06 08:46 | 52.07774 | 6.24496 | 27820 ft | 433 kts | 99° |
| 2026-05-06 08:46 | 52.07295 | 6.29325 | 28191 ft | 436 kts | 99° |
| 2026-05-06 08:47 | 52.06812 | 6.34192 | 28621 ft | 437 kts | 99° |
| 2026-05-06 08:47 | 52.06314 | 6.39142 | 29022 ft | 440 kts | 99° |
| 2026-05-06 08:47 | 52.05819 | 6.43999 | 29379 ft | 442 kts | 99° |
| 2026-05-06 08:47 | 52.05299 | 6.49003 | 29799 ft | 443 kts | 99° |
| 2026-05-06 08:48 | 52.04784 | 6.53922 | 30115 ft | 446 kts | 99° |
| 2026-05-06 08:48 | 52.04254 | 6.58916 | 30506 ft | 447 kts | 99° |
| 2026-05-06 08:48 | 52.03724 | 6.63870 | 30877 ft | 449 kts | 99° |
| 2026-05-06 08:48 | 52.03185 | 6.68895 | 31367 ft | 447 kts | 100° |
| 2026-05-06 08:49 | 52.02649 | 6.73857 | 31761 ft | 446 kts | 100° |
| 2026-05-06 08:49 | 52.02086 | 6.78846 | 32099 ft | 448 kts | 102° |
| 2026-05-06 08:49 | 52.01414 | 6.83740 | 32545 ft | 447 kts | 104° |
| 2026-05-06 08:49 | 52.00656 | 6.88623 | 32967 ft | 446 kts | 105° |
| 2026-05-06 08:50 | 51.99864 | 6.93462 | 33348 ft | 446 kts | 106° |
| 2026-05-06 08:50 | 51.99062 | 6.98288 | 33738 ft | 446 kts | 106° |
| 2026-05-06 08:50 | 51.98256 | 7.03129 | 34058 ft | 446 kts | 106° |
| 2026-05-06 08:50 | 51.97452 | 7.07977 | 34310 ft | 447 kts | 106° |
| 2026-05-06 08:51 | 51.96636 | 7.12859 | 34567 ft | 447 kts | 107° |
| 2026-05-06 08:51 | 51.95775 | 7.17702 | 34889 ft | 446 kts | 108° |
| 2026-05-06 08:51 | 51.94879 | 7.22513 | 35113 ft | 446 kts | 108° |
| 2026-05-06 08:51 | 51.93968 | 7.27301 | 35321 ft | 447 kts | 108° |
| 2026-05-06 08:52 | 51.93048 | 7.32110 | 35528 ft | 448 kts | 108° |
| 2026-05-06 08:52 | 51.92127 | 7.36922 | 35699 ft | 449 kts | 109° |
| 2026-05-06 08:52 | 51.91208 | 7.41739 | 35910 ft | 449 kts | 108° |
| 2026-05-06 08:52 | 51.90302 | 7.46497 | 36092 ft | 450 kts | 108° |
| 2026-05-06 08:53 | 51.89375 | 7.51375 | 36262 ft | 451 kts | 108° |
| 2026-05-06 08:53 | 51.88466 | 7.56164 | 36447 ft | 450 kts | 109° |
| 2026-05-06 08:53 | 51.87544 | 7.61023 | 36603 ft | 451 kts | 108° |
| 2026-05-06 08:53 | 51.86615 | 7.65914 | 36751 ft | 453 kts | 109° |
| 2026-05-06 08:54 | 51.85683 | 7.70815 | 36769 ft | 455 kts | 109° |
| 2026-05-06 08:54 | 51.84112 | 7.80716 | 36754 ft | 454 kts | 105° |
| 2026-05-06 08:55 | 51.82840 | 7.90648 | 36777 ft | 454 kts | 103° |
| 2026-05-06 08:55 | 51.81571 | 8.00687 | 36772 ft | 454 kts | 104° |
| 2026-05-06 08:56 | 51.80264 | 8.10655 | 36774 ft | 454 kts | 104° |
| 2026-05-06 08:56 | 51.78904 | 8.20706 | 36768 ft | 455 kts | 104° |
| 2026-05-06 08:57 | 51.77539 | 8.30623 | 36762 ft | 455 kts | 104° |
| 2026-05-06 08:57 | 51.76149 | 8.40623 | 36767 ft | 455 kts | 104° |
| 2026-05-06 08:58 | 51.74760 | 8.50522 | 36761 ft | 454 kts | 105° |
| 2026-05-06 08:58 | 51.73352 | 8.60487 | 36760 ft | 455 kts | 105° |
| 2026-05-06 08:59 | 51.71939 | 8.70429 | 36759 ft | 455 kts | 106° |
| 2026-05-06 08:59 | 51.70522 | 8.80333 | 36751 ft | 456 kts | 106° |
| 2026-05-06 09:00 | 51.69087 | 8.90298 | 36752 ft | 456 kts | 105° |
| 2026-05-06 09:00 | 51.67640 | 9.00275 | 36757 ft | 456 kts | 105° |
| 2026-05-06 09:01 | 51.66193 | 9.10192 | 36757 ft | 456 kts | 106° |
| 2026-05-06 09:01 | 51.64733 | 9.20137 | 36748 ft | 456 kts | 105° |
| 2026-05-06 09:02 | 51.63272 | 9.30027 | 36735 ft | 457 kts | 106° |
| 2026-05-06 09:02 | 51.61784 | 9.40027 | 36738 ft | 458 kts | 106° |
| 2026-05-06 09:03 | 51.60289 | 9.50015 | 36752 ft | 459 kts | 106° |
| 2026-05-06 09:03 | 51.58790 | 9.59967 | 36757 ft | 459 kts | 106° |
| 2026-05-06 09:04 | 51.57280 | 9.69937 | 36753 ft | 459 kts | 107° |
| 2026-05-06 09:04 | 51.55759 | 9.79911 | 36756 ft | 460 kts | 107° |
| 2026-05-06 09:05 | 51.54227 | 9.89880 | 36754 ft | 467 kts | 107° |
| 2026-05-06 09:05 | 51.52636 | 10.00167 | 36756 ft | 473 kts | 107° |
| 2026-05-06 09:06 | 51.51057 | 10.10329 | 36749 ft | 471 kts | 107° |
| 2026-05-06 09:06 | 51.49462 | 10.20537 | 36758 ft | 472 kts | 107° |
| 2026-05-06 09:07 | 51.47855 | 10.30760 | 36752 ft | 472 kts | 107° |
| 2026-05-06 09:07 | 51.46237 | 10.40981 | 36745 ft | 472 kts | 107° |
| 2026-05-06 09:08 | 51.44619 | 10.51137 | 36744 ft | 472 kts | 107° |
| 2026-05-06 09:08 | 51.43002 | 10.61318 | 36745 ft | 473 kts | 107° |
| 2026-05-06 09:09 | 51.41381 | 10.71538 | 36752 ft | 472 kts | 107° |
| 2026-05-06 09:09 | 51.39756 | 10.81740 | 36761 ft | 474 kts | 107° |
| 2026-05-06 09:10 | 51.38108 | 10.92007 | 36771 ft | 474 kts | 107° |
| 2026-05-06 09:10 | 51.36473 | 11.02129 | 36769 ft | 473 kts | 107° |
| 2026-05-06 09:11 | 51.34808 | 11.12371 | 36763 ft | 474 kts | 107° |
| 2026-05-06 09:11 | 51.33135 | 11.22586 | 36758 ft | 473 kts | 107° |
| 2026-05-06 09:12 | 51.31455 | 11.32791 | 36749 ft | 475 kts | 107° |
| 2026-05-06 09:12 | 51.29762 | 11.43008 | 36746 ft | 475 kts | 107° |
| 2026-05-06 09:13 | 51.28050 | 11.53277 | 36741 ft | 476 kts | 108° |
| 2026-05-06 09:13 | 51.26333 | 11.63517 | 36739 ft | 478 kts | 108° |
| 2026-05-06 09:14 | 51.24610 | 11.73735 | 36743 ft | 476 kts | 108° |
| 2026-05-06 09:14 | 51.23744 | 11.78842 | 36552 ft | 476 kts | 108° |
| 2026-05-06 09:14 | 51.22886 | 11.83898 | 36736 ft | 476 kts | 108° |
| 2026-05-06 09:15 | 51.21133 | 11.94151 | 36750 ft | 482 kts | 108° |
| 2026-05-06 09:15 | 51.19373 | 12.04424 | 36747 ft | 470 kts | 108° |
| 2026-05-06 09:16 | 51.17649 | 12.14423 | 36750 ft | 469 kts | 108° |
| 2026-05-06 09:16 | 51.15894 | 12.24520 | 36754 ft | 472 kts | 109° |
| 2026-05-06 09:17 | 51.14132 | 12.34596 | 36753 ft | 470 kts | 109° |
| 2026-05-06 09:17 | 51.12374 | 12.44602 | 36758 ft | 471 kts | 109° |
| 2026-05-06 09:18 | 51.10603 | 12.54625 | 36754 ft | 473 kts | 109° |
| 2026-05-06 09:18 | 51.08808 | 12.64730 | 36757 ft | 472 kts | 109° |
| 2026-05-06 09:19 | 51.07020 | 12.74731 | 36759 ft | 471 kts | 109° |
| 2026-05-06 09:19 | 51.05210 | 12.84792 | 36766 ft | 472 kts | 110° |
| 2026-05-06 09:20 | 51.03396 | 12.94825 | 36773 ft | 473 kts | 110° |
| 2026-05-06 09:20 | 51.01574 | 13.04850 | 36771 ft | 475 kts | 110° |
| 2026-05-06 09:21 | 50.99733 | 13.14932 | 36759 ft | 474 kts | 110° |
| 2026-05-06 09:21 | 50.97897 | 13.24941 | 36756 ft | 473 kts | 110° |
| 2026-05-06 09:22 | 50.96057 | 13.34904 | 36751 ft | 473 kts | 110° |
| 2026-05-06 09:22 | 50.94195 | 13.44920 | 36753 ft | 472 kts | 110° |
| 2026-05-06 09:23 | 50.92326 | 13.54932 | 36748 ft | 473 kts | 110° |
| 2026-05-06 09:23 | 50.90436 | 13.65009 | 36749 ft | 473 kts | 110° |
| 2026-05-06 09:24 | 50.88582 | 13.74854 | 36753 ft | 472 kts | 111° |
| 2026-05-06 09:24 | 50.86692 | 13.84833 | 36760 ft | 472 kts | 111° |
| 2026-05-06 09:25 | 50.84709 | 13.94738 | 36764 ft | 469 kts | 115° |
| 2026-05-06 09:25 | 50.81477 | 14.03421 | 36771 ft | 456 kts | 136° |
| 2026-05-06 09:26 | 50.76988 | 14.10415 | 36767 ft | 451 kts | 142° |
| 2026-05-06 09:26 | 50.72285 | 14.17044 | 36772 ft | 452 kts | 143° |
| 2026-05-06 09:27 | 50.67598 | 14.23598 | 36757 ft | 451 kts | 143° |
| 2026-05-06 09:27 | 50.62885 | 14.30245 | 36766 ft | 453 kts | 142° |
| 2026-05-06 09:28 | 50.58216 | 14.36870 | 36764 ft | 451 kts | 142° |
| 2026-05-06 09:28 | 50.53572 | 14.43468 | 36781 ft | 451 kts | 142° |
| 2026-05-06 09:29 | 50.48907 | 14.50096 | 36782 ft | 451 kts | 142° |
| 2026-05-06 09:29 | 50.44233 | 14.56770 | 36799 ft | 453 kts | 141° |
| 2026-05-06 09:30 | 50.39702 | 14.63594 | 36794 ft | 454 kts | 140° |
| 2026-05-06 09:30 | 50.35185 | 14.70520 | 36792 ft | 452 kts | 141° |
| 2026-05-06 09:31 | 50.30678 | 14.77396 | 36787 ft | 453 kts | 141° |
| 2026-05-06 09:31 | 50.26151 | 14.84244 | 36791 ft | 452 kts | 141° |
| 2026-05-06 09:32 | 50.21623 | 14.91058 | 36788 ft | 452 kts | 141° |
| 2026-05-06 09:32 | 50.17064 | 14.97891 | 36776 ft | 452 kts | 142° |
| 2026-05-06 09:33 | 50.12516 | 15.04690 | 36779 ft | 451 kts | 142° |
| 2026-05-06 09:33 | 50.07938 | 15.11507 | 36785 ft | 454 kts | 142° |
| 2026-05-06 09:34 | 50.03393 | 15.18258 | 36786 ft | 453 kts | 142° |
| 2026-05-06 09:34 | 49.98841 | 15.25003 | 36779 ft | 452 kts | 142° |
| 2026-05-06 09:35 | 49.94299 | 15.31711 | 36795 ft | 452 kts | 142° |
| 2026-05-06 09:35 | 49.89736 | 15.38433 | 36800 ft | 451 kts | 142° |
| 2026-05-06 09:36 | 49.85165 | 15.45151 | 36817 ft | 452 kts | 142° |
| 2026-05-06 09:36 | 49.80617 | 15.51812 | 36810 ft | 452 kts | 142° |
| 2026-05-06 09:37 | 49.76054 | 15.58483 | 36820 ft | 451 kts | 142° |
| 2026-05-06 09:37 | 49.71482 | 15.65144 | 36815 ft | 452 kts | 143° |
| 2026-05-06 09:38 | 49.66893 | 15.71812 | 36816 ft | 453 kts | 143° |
| 2026-05-06 09:38 | 49.62277 | 15.78492 | 36580 ft | 453 kts | 143° |
| 2026-05-06 09:38 | 49.59990 | 15.81806 | 36236 ft | 447 kts | 143° |
| 2026-05-06 09:39 | 49.57738 | 15.85067 | 35731 ft | 445 kts | 143° |
| 2026-05-06 09:39 | 49.55497 | 15.88299 | 35085 ft | 447 kts | 143° |
| 2026-05-06 09:39 | 49.53232 | 15.91554 | 34242 ft | 450 kts | 143° |
| 2026-05-06 09:39 | 49.50938 | 15.94848 | 33415 ft | 450 kts | 143° |
| 2026-05-06 09:40 | 49.48676 | 15.98096 | 32946 ft | 452 kts | 143° |
| 2026-05-06 09:40 | 49.46334 | 16.01454 | 32681 ft | 454 kts | 143° |
| 2026-05-06 09:40 | 49.41785 | 16.07983 | 30675 ft | 450 kts | 143° |
| 2026-05-06 09:41 | 49.39495 | 16.11257 | 29320 ft | 454 kts | 142° |
| 2026-05-06 09:41 | 49.37183 | 16.14551 | 28352 ft | 456 kts | 142° |
| 2026-05-06 09:41 | 49.34853 | 16.17820 | 27329 ft | 457 kts | 143° |
| 2026-05-06 09:41 | 49.32447 | 16.20932 | 26286 ft | 455 kts | 147° |
| 2026-05-06 09:42 | 49.29898 | 16.23709 | 25172 ft | 452 kts | 152° |
| 2026-05-06 09:42 | 49.27195 | 16.26202 | 24086 ft | 448 kts | 155° |
| 2026-05-06 09:42 | 49.24457 | 16.28445 | 23259 ft | 441 kts | 157° |
| 2026-05-06 09:42 | 49.21751 | 16.30512 | 22733 ft | 441 kts | 158° |
| 2026-05-06 09:43 | 49.18961 | 16.32575 | 22024 ft | 440 kts | 158° |
| 2026-05-06 09:43 | 49.16250 | 16.34554 | 21281 ft | 435 kts | 158° |
| 2026-05-06 09:43 | 49.13520 | 16.36540 | 20583 ft | 429 kts | 158° |
| 2026-05-06 09:43 | 49.10854 | 16.38479 | 19882 ft | 425 kts | 158° |
| 2026-05-06 09:44 | 49.08199 | 16.40412 | 19164 ft | 422 kts | 158° |
| 2026-05-06 09:44 | 49.05535 | 16.42353 | 18428 ft | 419 kts | 158° |
| 2026-05-06 09:44 | 49.02907 | 16.44271 | 17686 ft | 416 kts | 157° |
| 2026-05-06 09:44 | 49.00303 | 16.46173 | 16938 ft | 413 kts | 157° |
| 2026-05-06 09:45 | 48.97755 | 16.48036 | 16206 ft | 410 kts | 157° |
| 2026-05-06 09:45 | 48.95203 | 16.49901 | 15486 ft | 407 kts | 157° |
| 2026-05-06 09:45 | 48.92662 | 16.51764 | 14755 ft | 398 kts | 157° |
| 2026-05-06 09:45 | 48.90202 | 16.53556 | 14120 ft | 389 kts | 157° |
| 2026-05-06 09:46 | 48.87755 | 16.55321 | 13432 ft | 386 kts | 158° |
| 2026-05-06 09:46 | 48.85329 | 16.57070 | 12746 ft | 383 kts | 157° |
| 2026-05-06 09:46 | 48.82938 | 16.58806 | 12085 ft | 380 kts | 158° |
| 2026-05-06 09:46 | 48.80502 | 16.60242 | 11337 ft | 368 kts | 168° |
| 2026-05-06 09:47 | 48.78091 | 16.60599 | 10934 ft | 336 kts | 188° |
| 2026-05-06 09:47 | 48.75921 | 16.59794 | 10792 ft | 304 kts | 204° |
| 2026-05-06 09:47 | 48.74060 | 16.58500 | 10723 ft | 289 kts | 208° |
| 2026-05-06 09:47 | 48.72304 | 16.57142 | 10615 ft | 275 kts | 209° |
| 2026-05-06 09:48 | 48.70578 | 16.55744 | 10554 ft | 294 kts | 209° |
| 2026-05-06 09:48 | 48.68774 | 16.54265 | 10359 ft | 287 kts | 209° |
| 2026-05-06 09:48 | 48.67075 | 16.52900 | 10272 ft | 266 kts | 208° |
| 2026-05-06 09:48 | 48.65462 | 16.51603 | 10126 ft | 259 kts | 209° |
| 2026-05-06 09:49 | 48.63857 | 16.50309 | 9835 ft | 260 kts | 209° |
| 2026-05-06 09:49 | 48.62250 | 16.49013 | 9476 ft | 264 kts | 208° |
| 2026-05-06 09:49 | 48.60628 | 16.47708 | 9140 ft | 267 kts | 208° |
| 2026-05-06 09:49 | 48.58980 | 16.46384 | 8798 ft | 269 kts | 208° |
| 2026-05-06 09:50 | 48.57333 | 16.45062 | 8463 ft | 271 kts | 208° |
| 2026-05-06 09:50 | 48.55638 | 16.43703 | 8115 ft | 274 kts | 208° |
| 2026-05-06 09:50 | 48.53945 | 16.42353 | 7745 ft | 275 kts | 206° |
| 2026-05-06 09:50 | 48.52216 | 16.41320 | 7421 ft | 262 kts | 192° |
| 2026-05-06 09:51 | 48.50442 | 16.41265 | 7234 ft | 255 kts | 169° |
| 2026-05-06 09:51 | 48.48721 | 16.41995 | 6978 ft | 257 kts | 161° |
| 2026-05-06 09:51 | 48.47032 | 16.42859 | 6719 ft | 248 kts | 162° |
| 2026-05-06 09:51 | 48.45403 | 16.43613 | 6466 ft | 244 kts | 164° |
| 2026-05-06 09:52 | 48.43795 | 16.44306 | 6204 ft | 236 kts | 164° |
| 2026-05-06 09:52 | 48.42263 | 16.44956 | 6081 ft | 224 kts | 164° |
| 2026-05-06 09:52 | 48.40749 | 16.45599 | 5892 ft | 220 kts | 164° |
| 2026-05-06 09:52 | 48.39288 | 16.46221 | 5734 ft | 218 kts | 164° |
| 2026-05-06 09:53 | 48.37830 | 16.46843 | 5529 ft | 219 kts | 164° |
| 2026-05-06 09:53 | 48.36367 | 16.47469 | 5316 ft | 217 kts | 164° |
| 2026-05-06 09:53 | 48.34950 | 16.48075 | 5246 ft | 205 kts | 164° |
| 2026-05-06 09:53 | 48.33582 | 16.48656 | 4991 ft | 204 kts | 164° |
| 2026-05-06 09:54 | 48.32224 | 16.49234 | 4696 ft | 205 kts | 164° |
| 2026-05-06 09:54 | 48.30867 | 16.49810 | 4444 ft | 201 kts | 164° |
| 2026-05-06 09:54 | 48.29507 | 16.50392 | 4134 ft | 200 kts | 164° |
| 2026-05-06 09:54 | 48.28184 | 16.50955 | 3865 ft | 197 kts | 164° |
| 2026-05-06 09:55 | 48.26870 | 16.51513 | 3596 ft | 194 kts | 164° |
| 2026-05-06 09:55 | 48.25577 | 16.52061 | 3338 ft | 191 kts | 164° |
| 2026-05-06 09:55 | 48.24316 | 16.52598 | 3091 ft | 186 kts | 164° |
| 2026-05-06 09:55 | 48.23083 | 16.53121 | 2864 ft | 179 kts | 164° |
| 2026-05-06 09:56 | 48.21950 | 16.53602 | 2626 ft | 162 kts | 163° |
| 2026-05-06 09:56 | 48.20921 | 16.54038 | 2415 ft | 147 kts | 165° |
| 2026-05-06 09:56 | 48.19952 | 16.54447 | 2258 ft | 147 kts | 162° |
| 2026-05-06 09:56 | 48.18956 | 16.54874 | 2046 ft | 147 kts | 163° |
| 2026-05-06 09:57 | 48.17957 | 16.55292 | 1846 ft | 148 kts | 164° |
| 2026-05-06 09:57 | 48.16978 | 16.55715 | 1647 ft | 148 kts | 162° |
| 2026-05-06 09:57 | 48.15988 | 16.56152 | 1421 ft | 146 kts | 163° |
| 2026-05-06 09:57 | 48.15001 | 16.56570 | 1239 ft | 147 kts | 161° |
| 2026-05-06 09:58 | 48.14026 | 16.56971 | 1058 ft | 147 kts | 164° |
| 2026-05-06 09:58 | 48.13031 | 16.57379 | 840 ft | 148 kts | 161° |
| 2026-05-06 09:58 | 48.12040 | 16.57793 | 653 ft | 147 kts | 161° |
| 2026-05-06 09:58 | 48.11109 | 16.58202 | 606 ft | 116 kts | 165° |
| 2026-05-06 09:59 | 48.10575 | 16.58423 | 610 ft | 51 kts | 166° |
| 2026-05-06 09:59 | 48.10366 | 16.58483 | 610 ft | 24 kts | 182° |
| 2026-05-06 09:59 | 48.10206 | 16.58436 | 611 ft | 23 kts | 192° |
| 2026-05-06 09:59 | 48.10126 | 16.58310 | 612 ft | 17 kts | 317° |
| 2026-05-06 10:00 | 48.10250 | 16.58264 | 612 ft | 23 kts | 347° |
| 2026-05-06 10:00 | 48.10430 | 16.58187 | 611 ft | 27 kts | 342° |
| 2026-05-06 10:00 | 48.10614 | 16.58110 | 610 ft | 27 kts | 345° |
| 2026-05-06 10:00 | 48.10804 | 16.58036 | 608 ft | 28 kts | 346° |
| 2026-05-06 10:01 | 48.10993 | 16.57968 | 607 ft | 27 kts | 334° |
| 2026-05-06 10:01 | 48.11136 | 16.57779 | 606 ft | 27 kts | 298° |
| 2026-05-06 10:01 | 48.11218 | 16.57518 | 605 ft | 27 kts | 293° |
| 2026-05-06 10:01 | 48.11303 | 16.57262 | 604 ft | 27 kts | 295° |
| 2026-05-06 10:02 | 48.11389 | 16.56998 | 602 ft | 28 kts | 297° |
| 2026-05-06 10:02 | 48.11478 | 16.56731 | 600 ft | 29 kts | 295° |
| 2026-05-06 10:02 | 48.11563 | 16.56459 | 596 ft | 28 kts | 294° |
| 2026-05-06 10:02 | 48.11655 | 16.56179 | 594 ft | 31 kts | 298° |
| 2026-05-06 10:03 | 48.11754 | 16.55884 | 591 ft | 32 kts | 293° |
| 2026-05-06 10:03 | 48.11851 | 16.55583 | 589 ft | 31 kts | 296° |
| 2026-05-06 10:03 | 48.11941 | 16.55455 | 588 ft | 13 kts | 28° |
| 2026-05-06 10:03 | 48.11991 | 16.55529 | 588 ft | 7 kts | 92° |
| 2026-05-06 10:04 | 48.11986 | 16.55574 | 588 ft | 0 kts | 99° |
| 2026-05-06 10:04 | 48.11985 | 16.55579 | 588 ft | 0 kts | 99° |
| 2026-05-06 10:04 | 48.11985 | 16.55580 | 588 ft | 0 kts | 100° |